sensor_id;sensor_type;location;lat;lon;timestamp;pressure;altitude;pressure_sealevel;temperature;humidity
11440;BME280;5776;51.814;4.510;2023-11-19T00:00:43;100857.63;;;11.33;100.00
11440;BME280;5776;51.814;4.510;2023-11-19T00:03:09;100849.19;;;11.35;100.00
11440;BME280;5776;51.814;4.510;2023-11-19T00:05:36;100847.56;;;11.34;100.00
11440;BME280;5776;51.814;4.510;2023-11-19T00:08:03;100854.03;;;11.38;100.00
11440;BME280;5776;51.814;4.510;2023-11-19T00:10:32;100848.38;;;11.34;100.00
11440;BME280;5776;51.814;4.510;2023-11-19T00:12:58;100844.53;;;11.35;100.00
11440;BME280;5776;51.814;4.510;2023-11-19T00:15:24;100853.81;;;11.34;100.00
11440;BME280;5776;51.814;4.510;2023-11-19T00:17:50;100857.13;;;11.31;100.00
11440;BME280;5776;51.814;4.510;2023-11-19T00:20:19;100861.72;;;11.31;100.00
11440;BME280;5776;51.814;4.510;2023-11-19T00:22:45;100863.06;;;11.33;100.00
11440;BME280;5776;51.814;4.510;2023-11-19T00:25:18;100864.69;;;11.34;100.00
11440;BME280;5776;51.814;4.510;2023-11-19T00:27:44;100863.66;;;11.30;100.00
11440;BME280;5776;51.814;4.510;2023-11-19T00:30:10;100868.00;;;11.31;100.00
11440;BME280;5776;51.814;4.510;2023-11-19T00:32:36;100872.84;;;11.34;100.00
11440;BME280;5776;51.814;4.510;2023-11-19T00:35:05;100872.91;;;11.29;100.00
11440;BME280;5776;51.814;4.510;2023-11-19T00:37:31;100864.44;;;11.31;100.00
11440;BME280;5776;51.814;4.510;2023-11-19T00:39:57;100858.53;;;11.29;100.00
11440;BME280;5776;51.814;4.510;2023-11-19T00:42:24;100856.59;;;11.29;100.00
11440;BME280;5776;51.814;4.510;2023-11-19T00:44:50;100861.25;;;11.29;100.00
11440;BME280;5776;51.814;4.510;2023-11-19T00:47:17;100863.44;;;11.27;100.00
11440;BME280;5776;51.814;4.510;2023-11-19T00:49:47;100865.84;;;11.28;100.00
11440;BME280;5776;51.814;4.510;2023-11-19T00:52:15;100870.47;;;11.28;100.00
11440;BME280;5776;51.814;4.510;2023-11-19T00:54:41;100853.38;;;11.27;100.00
11440;BME280;5776;51.814;4.510;2023-11-19T00:57:07;100837.84;;;11.28;100.00
11440;BME280;5776;51.814;4.510;2023-11-19T00:59:33;100830.00;;;11.26;100.00
11440;BME280;5776;51.814;4.510;2023-11-19T01:01:59;100825.97;;;11.23;100.00
11440;BME280;5776;51.814;4.510;2023-11-19T01:04:35;100834.13;;;11.23;100.00
11440;BME280;5776;51.814;4.510;2023-11-19T01:07:03;100823.53;;;11.22;100.00
11440;BME280;5776;51.814;4.510;2023-11-19T01:09:30;100818.38;;;11.20;100.00
11440;BME280;5776;51.814;4.510;2023-11-19T01:11:58;100828.44;;;11.20;100.00
11440;BME280;5776;51.814;4.510;2023-11-19T01:14:26;100824.13;;;11.19;100.00
11440;BME280;5776;51.814;4.510;2023-11-19T01:16:52;100828.72;;;11.18;100.00
11440;BME280;5776;51.814;4.510;2023-11-19T01:19:23;100830.94;;;11.16;100.00
11440;BME280;5776;51.814;4.510;2023-11-19T01:21:50;100835.88;;;11.14;100.00
11440;BME280;5776;51.814;4.510;2023-11-19T01:24:16;100841.56;;;11.13;100.00
11440;BME280;5776;51.814;4.510;2023-11-19T01:26:43;100841.06;;;11.11;100.00
11440;BME280;5776;51.814;4.510;2023-11-19T01:29:11;100838.94;;;11.08;100.00
11440;BME280;5776;51.814;4.510;2023-11-19T01:31:40;100816.38;;;11.07;100.00
11440;BME280;5776;51.814;4.510;2023-11-19T01:34:06;100813.94;;;11.06;100.00
11440;BME280;5776;51.814;4.510;2023-11-19T01:36:32;100806.31;;;11.08;100.00
11440;BME280;5776;51.814;4.510;2023-11-19T01:38:58;100804.72;;;11.07;100.00
11440;BME280;5776;51.814;4.510;2023-11-19T01:41:23;100812.34;;;11.05;100.00
11440;BME280;5776;51.814;4.510;2023-11-19T01:43:50;100823.47;;;11.03;100.00
11440;BME280;5776;51.814;4.510;2023-11-19T01:46:16;100821.34;;;11.00;100.00
11440;BME280;5776;51.814;4.510;2023-11-19T01:48:44;100823.28;;;10.99;100.00
11440;BME280;5776;51.814;4.510;2023-11-19T01:51:14;100821.16;;;10.96;100.00
11440;BME280;5776;51.814;4.510;2023-11-19T01:53:43;100808.94;;;10.94;100.00
11440;BME280;5776;51.814;4.510;2023-11-19T01:56:11;100810.03;;;10.93;100.00
11440;BME280;5776;51.814;4.510;2023-11-19T01:58:39;100819.56;;;10.90;100.00
11440;BME280;5776;51.814;4.510;2023-11-19T02:01:06;100820.84;;;10.98;100.00
11440;BME280;5776;51.814;4.510;2023-11-19T02:03:33;100819.81;;;10.94;100.00
11440;BME280;5776;51.814;4.510;2023-11-19T02:06:00;100829.34;;;10.91;100.00
11440;BME280;5776;51.814;4.510;2023-11-19T02:08:26;100825.31;;;10.89;100.00
11440;BME280;5776;51.814;4.510;2023-11-19T02:10:52;100831.84;;;10.88;100.00
11440;BME280;5776;51.814;4.510;2023-11-19T02:13:20;100839.19;;;10.87;100.00
11440;BME280;5776;51.814;4.510;2023-11-19T02:15:46;100833.53;;;10.84;100.00
11440;BME280;5776;51.814;4.510;2023-11-19T02:20:45;100829.97;;;10.83;100.00
11440;BME280;5776;51.814;4.510;2023-11-19T02:23:13;100837.91;;;10.79;100.00
11440;BME280;5776;51.814;4.510;2023-11-19T02:25:40;100832.47;;;10.79;100.00
11440;BME280;5776;51.814;4.510;2023-11-19T02:28:07;100837.69;;;10.76;100.00
11440;BME280;5776;51.814;4.510;2023-11-19T02:30:33;100832.00;;;10.72;100.00
11440;BME280;5776;51.814;4.510;2023-11-19T02:32:59;100832.28;;;10.71;100.00
11440;BME280;5776;51.814;4.510;2023-11-19T02:35:32;100825.25;;;10.70;100.00
11440;BME280;5776;51.814;4.510;2023-11-19T02:37:58;100826.34;;;10.69;100.00
11440;BME280;5776;51.814;4.510;2023-11-19T02:40:25;100822.31;;;10.66;100.00
11440;BME280;5776;51.814;4.510;2023-11-19T02:42:55;100832.34;;;10.66;100.00
11440;BME280;5776;51.814;4.510;2023-11-19T02:45:23;100836.44;;;10.63;100.00
11440;BME280;5776;51.814;4.510;2023-11-19T02:47:49;100825.09;;;10.61;100.00
11440;BME280;5776;51.814;4.510;2023-11-19T02:50:17;100824.84;;;10.57;100.00
11440;BME280;5776;51.814;4.510;2023-11-19T02:52:44;100825.94;;;10.56;100.00
11440;BME280;5776;51.814;4.510;2023-11-19T02:55:12;100824.84;;;10.57;100.00
11440;BME280;5776;51.814;4.510;2023-11-19T02:57:39;100824.91;;;10.52;100.00
11440;BME280;5776;51.814;4.510;2023-11-19T03:00:17;100839.06;;;10.49;100.00
11440;BME280;5776;51.814;4.510;2023-11-19T03:02:43;100830.31;;;10.52;100.00
11440;BME280;5776;51.814;4.510;2023-11-19T03:05:14;100838.72;;;10.56;100.00
11440;BME280;5776;51.814;4.510;2023-11-19T03:07:42;100827.59;;;10.52;100.00
11440;BME280;5776;51.814;4.510;2023-11-19T03:10:12;100827.59;;;10.52;100.00
11440;BME280;5776;51.814;4.510;2023-11-19T03:12:39;100817.91;;;10.46;100.00
11440;BME280;5776;51.814;4.510;2023-11-19T03:15:07;100818.47;;;10.43;100.00
11440;BME280;5776;51.814;4.510;2023-11-19T03:17:35;100822.50;;;10.46;100.00
11440;BME280;5776;51.814;4.510;2023-11-19T03:20:01;100818.47;;;10.43;100.00
11440;BME280;5776;51.814;4.510;2023-11-19T03:22:26;100809.28;;;10.39;100.00
11440;BME280;5776;51.814;4.510;2023-11-19T03:24:54;100820.69;;;10.41;100.00
11440;BME280;5776;51.814;4.510;2023-11-19T03:27:20;100808.75;;;10.37;100.00
11440;BME280;5776;51.814;4.510;2023-11-19T03:29:46;100812.28;;;10.37;100.00
11440;BME280;5776;51.814;4.510;2023-11-19T03:32:12;100804.72;;;10.34;100.00
11440;BME280;5776;51.814;4.510;2023-11-19T03:34:39;100803.34;;;10.37;100.00
11440;BME280;5776;51.814;4.510;2023-11-19T03:37:07;100808.00;;;10.31;100.00
11440;BME280;5776;51.814;4.510;2023-11-19T03:39:33;100820.19;;;10.34;100.00
11440;BME280;5776;51.814;4.510;2023-11-19T03:41:59;100815.34;;;10.31;100.00
11440;BME280;5776;51.814;4.510;2023-11-19T03:44:27;100821.06;;;10.29;100.00
11440;BME280;5776;51.814;4.510;2023-11-19T03:46:53;100825.94;;;10.27;100.00
11440;BME280;5776;51.814;4.510;2023-11-19T03:49:20;100809.63;;;10.27;100.00
11440;BME280;5776;51.814;4.510;2023-11-19T03:51:45;100811.81;;;10.25;100.00
11440;BME280;5776;51.814;4.510;2023-11-19T03:54:12;100815.91;;;10.28;100.00
11440;BME280;5776;51.814;4.510;2023-11-19T03:56:38;100828.94;;;10.26;100.00
11440;BME280;5776;51.814;4.510;2023-11-19T03:59:04;100824.06;;;10.23;100.00
11440;BME280;5776;51.814;4.510;2023-11-19T04:01:30;100825.97;;;10.22;100.00
11440;BME280;5776;51.814;4.510;2023-11-19T04:03:56;100829.50;;;10.23;100.00
11440;BME280;5776;51.814;4.510;2023-11-19T04:06:22;100823.53;;;10.21;100.00
11440;BME280;5776;51.814;4.510;2023-11-19T04:08:47;100827.34;;;10.20;100.00
11440;BME280;5776;51.814;4.510;2023-11-19T04:11:13;100828.47;;;10.19;100.00
11440;BME280;5776;51.814;4.510;2023-11-19T04:13:39;100821.13;;;10.19;100.00
11440;BME280;5776;51.814;4.510;2023-11-19T04:16:05;100831.44;;;10.17;100.00
11440;BME280;5776;51.814;4.510;2023-11-19T04:18:31;100831.44;;;10.17;100.00
11440;BME280;5776;51.814;4.510;2023-11-19T04:20:57;100834.44;;;10.15;100.00
11440;BME280;5776;51.814;4.510;2023-11-19T04:23:23;100825.78;;;10.13;100.00
11440;BME280;5776;51.814;4.510;2023-11-19T04:25:51;100835.53;;;10.14;100.00
11440;BME280;5776;51.814;4.510;2023-11-19T04:28:18;100845.88;;;10.12;100.00
11440;BME280;5776;51.814;4.510;2023-11-19T04:30:43;100843.16;;;10.12;100.00
11440;BME280;5776;51.814;4.510;2023-11-19T04:33:10;100843.72;;;10.09;100.00
11440;BME280;5776;51.814;4.510;2023-11-19T04:35:35;100850.25;;;10.08;100.00
11440;BME280;5776;51.814;4.510;2023-11-19T04:38:01;100850.25;;;10.08;100.00
11440;BME280;5776;51.814;4.510;2023-11-19T04:40:27;100849.44;;;10.08;100.00
11440;BME280;5776;51.814;4.510;2023-11-19T04:42:53;100851.34;;;10.07;100.00
11440;BME280;5776;51.814;4.510;2023-11-19T04:45:19;100857.06;;;10.06;100.00
11440;BME280;5776;51.814;4.510;2023-11-19T04:47:45;100856.22;;;10.05;100.00
11440;BME280;5776;51.814;4.510;2023-11-19T04:50:11;100852.72;;;10.05;100.00
11440;BME280;5776;51.814;4.510;2023-11-19T04:52:38;100842.66;;;10.05;100.00
11440;BME280;5776;51.814;4.510;2023-11-19T04:55:06;100843.78;;;10.04;100.00
11440;BME280;5776;51.814;4.510;2023-11-19T04:57:31;100842.13;;;10.08;100.00
11440;BME280;5776;51.814;4.510;2023-11-19T04:59:58;100838.34;;;10.04;100.00
11440;BME280;5776;51.814;4.510;2023-11-19T05:02:24;100836.75;;;10.03;100.00
11440;BME280;5776;51.814;4.510;2023-11-19T05:04:50;100837.81;;;10.02;100.00
11440;BME280;5776;51.814;4.510;2023-11-19T05:07:17;100842.44;;;10.02;100.00
11440;BME280;5776;51.814;4.510;2023-11-19T05:09:43;100848.97;;;10.01;100.00
11440;BME280;5776;51.814;4.510;2023-11-19T05:12:09;100847.34;;;10.00;100.00
11440;BME280;5776;51.814;4.510;2023-11-19T05:14:37;100848.13;;;10.00;100.00
11440;BME280;5776;51.814;4.510;2023-11-19T05:17:03;100847.34;;;10.00;100.00
11440;BME280;5776;51.814;4.510;2023-11-19T05:19:30;100845.72;;;9.99;100.00
11440;BME280;5776;51.814;4.510;2023-11-19T05:21:55;100847.59;;;9.98;100.00
11440;BME280;5776;51.814;4.510;2023-11-19T05:24:21;100842.72;;;10.00;100.00
11440;BME280;5776;51.814;4.510;2023-11-19T05:26:47;100841.69;;;9.96;100.00
11440;BME280;5776;51.814;4.510;2023-11-19T05:29:13;100849.81;;;9.96;100.00
11440;BME280;5776;51.814;4.510;2023-11-19T05:31:39;100850.88;;;9.95;100.00
11440;BME280;5776;51.814;4.510;2023-11-19T05:34:06;100866.09;;;9.96;100.00
11440;BME280;5776;51.814;4.510;2023-11-19T05:36:32;100864.47;;;9.95;100.00
11440;BME280;5776;51.814;4.510;2023-11-19T05:38:59;100850.09;;;9.94;100.00
11440;BME280;5776;51.814;4.510;2023-11-19T05:41:25;100853.06;;;9.93;100.00
11440;BME280;5776;51.814;4.510;2023-11-19T05:43:50;100852.28;;;9.92;100.00
11440;BME280;5776;51.814;4.510;2023-11-19T05:46:17;100847.66;;;9.93;100.00
11440;BME280;5776;51.814;4.510;2023-11-19T05:48:43;100858.50;;;9.93;100.00
11440;BME280;5776;51.814;4.510;2023-11-19T05:51:09;100849.03;;;9.90;100.00
11440;BME280;5776;51.814;4.510;2023-11-19T05:53:35;100837.38;;;9.90;100.00
11440;BME280;5776;51.814;4.510;2023-11-19T05:56:02;100839.00;;;9.91;100.00
11440;BME280;5776;51.814;4.510;2023-11-19T05:58:29;100837.91;;;9.92;100.00
11440;BME280;5776;51.814;4.510;2023-11-19T06:00:56;100827.63;;;9.89;100.00
11440;BME280;5776;51.814;4.510;2023-11-19T06:03:22;100823.00;;;9.89;100.00
11440;BME280;5776;51.814;4.510;2023-11-19T06:05:49;100830.34;;;9.89;100.00
11440;BME280;5776;51.814;4.510;2023-11-19T06:08:15;100830.34;;;9.89;100.00
11440;BME280;5776;51.814;4.510;2023-11-19T06:10:42;100832.75;;;9.90;100.00
11440;BME280;5776;51.814;4.510;2023-11-19T06:13:08;100830.59;;;9.87;100.00
11440;BME280;5776;51.814;4.510;2023-11-19T06:15:36;100824.38;;;9.87;100.00
11440;BME280;5776;51.814;4.510;2023-11-19T06:18:02;100830.59;;;9.87;100.00
11440;BME280;5776;51.814;4.510;2023-11-19T06:20:30;100833.03;;;9.89;100.00
11440;BME280;5776;51.814;4.510;2023-11-19T06:22:57;100827.09;;;9.87;100.00
11440;BME280;5776;51.814;4.510;2023-11-19T06:25:24;100839.53;;;9.88;100.00
11440;BME280;5776;51.814;4.510;2023-11-19T06:27:50;100840.66;;;9.87;100.00
11440;BME280;5776;51.814;4.510;2023-11-19T06:30:17;100839.03;;;9.86;100.00
11440;BME280;5776;51.814;4.510;2023-11-19T06:32:42;100836.03;;;9.87;100.00
11440;BME280;5776;51.814;4.510;2023-11-19T06:35:08;100837.41;;;9.85;100.00
11440;BME280;5776;51.814;4.510;2023-11-19T06:37:38;100834.69;;;9.85;100.00
11440;BME280;5776;51.814;4.510;2023-11-19T06:40:04;100843.94;;;9.84;100.00
11440;BME280;5776;51.814;4.510;2023-11-19T06:42:31;100857.19;;;9.85;100.00
11440;BME280;5776;51.814;4.510;2023-11-19T06:44:57;100853.69;;;9.85;100.00
11440;BME280;5776;51.814;4.510;2023-11-19T06:47:27;100864.84;;;9.83;100.00
11440;BME280;5776;51.814;4.510;2023-11-19T06:49:55;100875.69;;;9.83;100.00
11440;BME280;5776;51.814;4.510;2023-11-19T06:52:21;100880.81;;;9.85;100.00
11440;BME280;5776;51.814;4.510;2023-11-19T06:54:47;100892.19;;;9.87;100.00
11440;BME280;5776;51.814;4.510;2023-11-19T06:57:14;100877.00;;;9.91;100.00
11440;BME280;5776;51.814;4.510;2023-11-19T06:59:42;100878.63;;;9.87;100.00
11440;BME280;5776;51.814;4.510;2023-11-19T07:02:08;100880.78;;;9.90;100.00
11440;BME280;5776;51.814;4.510;2023-11-19T07:04:35;100878.03;;;9.95;100.00
11440;BME280;5776;51.814;4.510;2023-11-19T07:07:01;100894.03;;;9.97;100.00
11440;BME280;5776;51.814;4.510;2023-11-19T07:09:27;100887.81;;;9.96;100.00
11440;BME280;5776;51.814;4.510;2023-11-19T07:11:52;100896.78;;;9.91;100.00
11440;BME280;5776;51.814;4.510;2023-11-19T07:14:19;100882.06;;;9.98;100.00
11440;BME280;5776;51.814;4.510;2023-11-19T07:16:45;100880.47;;;9.97;100.00
11440;BME280;5776;51.814;4.510;2023-11-19T07:19:12;100874.78;;;9.93;100.00
11440;BME280;5776;51.814;4.510;2023-11-19T07:21:41;100879.41;;;9.92;100.00
11440;BME280;5776;51.814;4.510;2023-11-19T07:24:10;100879.09;;;9.99;100.00
11440;BME280;5776;51.814;4.510;2023-11-19T07:26:46;100884.78;;;9.98;100.00
11440;BME280;5776;51.814;4.510;2023-11-19T07:29:13;100882.91;;;9.93;100.00
11440;BME280;5776;51.814;4.510;2023-11-19T07:31:38;100894.84;;;9.97;100.00
11440;BME280;5776;51.814;4.510;2023-11-19T07:34:05;100883.97;;;9.97;100.00
11440;BME280;5776;51.814;4.510;2023-11-19T07:36:32;100886.16;;;9.95;100.00
11440;BME280;5776;51.814;4.510;2023-11-19T07:38:58;100888.06;;;9.94;100.00
11440;BME280;5776;51.814;4.510;2023-11-19T07:41:24;100880.69;;;10.00;100.00
11440;BME280;5776;51.814;4.510;2023-11-19T07:43:51;100875.56;;;9.99;100.00
11440;BME280;5776;51.814;4.510;2023-11-19T07:46:17;100885.00;;;10.06;100.00
11440;BME280;5776;51.814;4.510;2023-11-19T07:48:45;100883.13;;;10.02;100.00
11440;BME280;5776;51.814;4.510;2023-11-19T07:51:13;100880.66;;;10.05;100.00
11440;BME280;5776;51.814;4.510;2023-11-19T07:53:39;100878.44;;;10.12;100.00
11440;BME280;5776;51.814;4.510;2023-11-19T07:56:09;100883.88;;;10.12;100.00
11440;BME280;5776;51.814;4.510;2023-11-19T07:58:36;100873.00;;;10.12;100.00
11440;BME280;5776;51.814;4.510;2023-11-19T08:01:02;100875.69;;;10.17;100.00
11440;BME280;5776;51.814;4.510;2023-11-19T08:03:28;100876.22;;;10.20;100.00
11440;BME280;5776;51.814;4.510;2023-11-19T08:05:55;100884.66;;;10.13;100.00
11440;BME280;5776;51.814;4.510;2023-11-19T08:08:22;100877.41;;;10.08;100.00
11440;BME280;5776;51.814;4.510;2023-11-19T08:10:48;100880.88;;;10.14;100.00
11440;BME280;5776;51.814;4.510;2023-11-19T08:13:14;100889.03;;;10.14;100.00
11440;BME280;5776;51.814;4.510;2023-11-19T08:15:40;100886.31;;;10.14;100.00
11440;BME280;5776;51.814;4.510;2023-11-19T08:18:06;100897.97;;;10.14;100.00
11440;BME280;5776;51.814;4.510;2023-11-19T08:20:33;100899.56;;;10.15;100.00
11440;BME280;5776;51.814;4.510;2023-11-19T08:23:02;100907.16;;;10.19;100.00
11440;BME280;5776;51.814;4.510;2023-11-19T08:25:29;100908.50;;;10.21;100.00
11440;BME280;5776;51.814;4.510;2023-11-19T08:27:55;100900.06;;;10.23;100.00
11440;BME280;5776;51.814;4.510;2023-11-19T08:30:20;100904.97;;;10.21;100.00
11440;BME280;5776;51.814;4.510;2023-11-19T08:32:47;100902.25;;;10.21;100.00
11440;BME280;5776;51.814;4.510;2023-11-19T08:35:13;100898.47;;;10.22;100.00
11440;BME280;5776;51.814;4.510;2023-11-19T08:37:41;100898.69;;;10.25;100.00
11440;BME280;5776;51.814;4.510;2023-11-19T08:40:08;100898.41;;;10.27;100.00
11440;BME280;5776;51.814;4.510;2023-11-19T08:42:34;100911.44;;;10.25;100.00
11440;BME280;5776;51.814;4.510;2023-11-19T08:45:00;100899.50;;;10.31;100.00
11440;BME280;5776;51.814;4.510;2023-11-19T08:47:25;100896.50;;;10.27;100.00
11440;BME280;5776;51.814;4.510;2023-11-19T08:49:51;100890.28;;;10.27;100.00
11440;BME280;5776;51.814;4.510;2023-11-19T08:52:17;100890.28;;;10.27;100.00
11440;BME280;5776;51.814;4.510;2023-11-19T08:54:43;100882.38;;;10.30;100.00
11440;BME280;5776;51.814;4.510;2023-11-19T08:57:09;100892.44;;;10.30;100.00
11440;BME280;5776;51.814;4.510;2023-11-19T08:59:35;100890.53;;;10.30;100.00
11440;BME280;5776;51.814;4.510;2023-11-19T09:02:05;100894.56;;;10.33;100.00
11440;BME280;5776;51.814;4.510;2023-11-19T09:04:30;100889.97;;;10.33;100.00
11440;BME280;5776;51.814;4.510;2023-11-19T09:06:59;100897.81;;;10.35;100.00
11440;BME280;5776;51.814;4.510;2023-11-19T09:09:25;100899.16;;;10.37;100.00
11440;BME280;5776;51.814;4.510;2023-11-19T09:11:51;100890.22;;;10.37;100.00
11440;BME280;5776;51.814;4.510;2023-11-19T09:14:17;100892.34;;;10.40;100.00
11440;BME280;5776;51.814;4.510;2023-11-19T09:16:44;100890.16;;;10.42;100.00
11440;BME280;5776;51.814;4.510;2023-11-19T09:19:09;100887.97;;;10.44;100.00
11440;BME280;5776;51.814;4.510;2023-11-19T09:21:35;100896.13;;;10.44;100.00
11440;BME280;5776;51.814;4.510;2023-11-19T09:24:04;100878.72;;;10.45;100.00
11440;BME280;5776;51.814;4.510;2023-11-19T09:26:30;100882.72;;;10.53;100.00
11440;BME280;5776;51.814;4.510;2023-11-19T09:28:56;100887.13;;;10.49;100.00
11440;BME280;5776;51.814;4.510;2023-11-19T09:31:22;100881.91;;;10.52;100.00
11440;BME280;5776;51.814;4.510;2023-11-19T09:33:48;100881.97;;;10.47;100.00
11440;BME280;5776;51.814;4.510;2023-11-19T09:36:14;100886.31;;;10.48;100.00
11440;BME280;5776;51.814;4.510;2023-11-19T09:38:43;100893.34;;;10.49;100.00
11440;BME280;5776;51.814;4.510;2023-11-19T09:41:10;100881.38;;;10.50;100.00
11440;BME280;5776;51.814;4.510;2023-11-19T09:43:39;100885.75;;;10.51;100.00
11440;BME280;5776;51.814;4.510;2023-11-19T09:46:06;100893.03;;;10.56;100.00
11440;BME280;5776;51.814;4.510;2023-11-19T09:48:35;100881.34;;;10.55;100.00
11440;BME280;5776;51.814;4.510;2023-11-19T09:51:04;100885.38;;;10.58;100.00
11440;BME280;5776;51.814;4.510;2023-11-19T09:53:31;100885.06;;;10.65;100.00
11440;BME280;5776;51.814;4.510;2023-11-19T09:55:59;100890.78;;;10.63;100.00
11440;BME280;5776;51.814;4.510;2023-11-19T09:58:26;100882.88;;;10.67;100.00
11440;BME280;5776;51.814;4.510;2023-11-19T10:00:52;100877.66;;;10.70;100.00
11440;BME280;5776;51.814;4.510;2023-11-19T10:03:18;100881.72;;;10.73;100.00
11440;BME280;5776;51.814;4.510;2023-11-19T10:05:45;100880.00;;;10.82;100.00
11440;BME280;5776;51.814;4.510;2023-11-19T10:08:10;100886.75;;;10.85;100.00
11440;BME280;5776;51.814;4.510;2023-11-19T10:10:37;100895.13;;;10.88;100.00
11440;BME280;5776;51.814;4.510;2023-11-19T10:13:03;100891.84;;;10.91;100.00
11440;BME280;5776;51.814;4.510;2023-11-19T10:15:35;100880.69;;;10.93;100.00
11440;BME280;5776;51.814;4.510;2023-11-19T10:18:01;100882.00;;;10.95;100.00
11440;BME280;5776;51.814;4.510;2023-11-19T10:20:27;100882.53;;;10.97;100.00
11440;BME280;5776;51.814;4.510;2023-11-19T10:22:55;100877.09;;;10.97;100.00
11440;BME280;5776;51.814;4.510;2023-11-19T10:25:22;100883.34;;;10.98;100.00
11440;BME280;5776;51.814;4.510;2023-11-19T10:27:49;100887.38;;;11.00;100.00
11440;BME280;5776;51.814;4.510;2023-11-19T10:30:23;100881.94;;;11.00;100.00
11440;BME280;5776;51.814;4.510;2023-11-19T10:33:05;100883.59;;;11.01;100.00
11440;BME280;5776;51.814;4.510;2023-11-19T10:35:36;100888.44;;;11.05;100.00
11440;BME280;5776;51.814;4.510;2023-11-19T10:38:15;100886.53;;;11.05;100.00
11440;BME280;5776;51.814;4.510;2023-11-19T10:40:41;100887.25;;;11.11;100.00
11440;BME280;5776;51.814;4.510;2023-11-19T10:43:08;100882.06;;;11.14;100.00
11440;BME280;5776;51.814;4.510;2023-11-19T10:45:38;100883.91;;;11.19;100.00
11440;BME280;5776;51.814;4.510;2023-11-19T10:48:05;100879.28;;;11.19;100.00
11440;BME280;5776;51.814;4.510;2023-11-19T10:50:34;100875.13;;;11.27;100.00
11440;BME280;5776;51.814;4.510;2023-11-19T10:53:00;100872.91;;;11.29;100.00
11440;BME280;5776;51.814;4.510;2023-11-19T10:55:28;100879.69;;;11.32;100.00
11440;BME280;5776;51.814;4.510;2023-11-19T10:58:05;100874.19;;;11.37;100.00
11440;BME280;5776;51.814;4.510;2023-11-19T11:00:59;100876.31;;;11.40;100.00
11440;BME280;5776;51.814;4.510;2023-11-19T11:03:35;100868.34;;;11.43;100.00
11440;BME280;5776;51.814;4.510;2023-11-19T11:06:05;100872.78;;;11.39;100.00
11440;BME280;5776;51.814;4.510;2023-11-19T11:08:34;100864.31;;;11.41;100.00
11440;BME280;5776;51.814;4.510;2023-11-19T11:11:01;100869.75;;;11.41;100.00
11440;BME280;5776;51.814;4.510;2023-11-19T11:13:31;100859.13;;;11.44;100.00
11440;BME280;5776;51.814;4.510;2023-11-19T11:15:57;100861.31;;;11.42;100.00
11440;BME280;5776;51.814;4.510;2023-11-19T11:18:24;100844.47;;;11.40;100.00
11440;BME280;5776;51.814;4.510;2023-11-19T11:21:01;100851.84;;;11.40;100.00
11440;BME280;5776;51.814;4.510;2023-11-19T11:26:46;100861.31;;;11.42;100.00
11440;BME280;5776;51.814;4.510;2023-11-19T11:29:30;100855.88;;;11.42;100.00
11440;BME280;5776;51.814;4.510;2023-11-19T11:32:18;100855.88;;;11.42;100.00
11440;BME280;5776;51.814;4.510;2023-11-19T11:34:58;100854.28;;;11.41;100.00
11440;BME280;5776;51.814;4.510;2023-11-19T11:40:24;100842.28;;;11.42;100.00
11440;BME280;5776;51.814;4.510;2023-11-19T11:42:52;100846.59;;;11.43;100.00
11440;BME280;5776;51.814;4.510;2023-11-19T11:45:18;100852.03;;;11.43;100.00
11440;BME280;5776;51.814;4.510;2023-11-19T11:50:22;100841.69;;;11.45;100.00
11440;BME280;5776;51.814;4.510;2023-11-19T11:55:35;100836.75;;;11.48;100.00
11440;BME280;5776;51.814;4.510;2023-11-19T11:58:03;100845.19;;;11.46;100.00
11440;BME280;5776;51.814;4.510;2023-11-19T12:00:38;100842.19;;;11.48;100.00
11440;BME280;5776;51.814;4.510;2023-11-19T12:03:07;100843.31;;;11.46;100.00
11440;BME280;5776;51.814;4.510;2023-11-19T12:05:42;100837.56;;;11.48;100.00
11440;BME280;5776;51.814;4.510;2023-11-19T12:08:19;100825.88;;;11.48;100.00
11440;BME280;5776;51.814;4.510;2023-11-19T12:10:48;100823.97;;;11.48;100.00
11440;BME280;5776;51.814;4.510;2023-11-19T12:13:15;100817.44;;;11.49;100.00
11440;BME280;5776;51.814;4.510;2023-11-19T12:18:31;100826.94;;;11.52;100.00
11440;BME280;5776;51.814;4.510;2023-11-19T12:20:57;100824.13;;;11.57;100.00
11440;BME280;5776;51.814;4.510;2023-11-19T12:23:27;100831.78;;;11.55;100.00
11440;BME280;5776;51.814;4.510;2023-11-19T12:25:54;100824.13;;;11.57;100.00
11440;BME280;5776;51.814;4.510;2023-11-19T12:28:21;100837.13;;;11.60;100.00
11440;BME280;5776;51.814;4.510;2023-11-19T12:30:47;100831.09;;;11.63;100.00
11440;BME280;5776;51.814;4.510;2023-11-19T12:33:14;100825.66;;;11.63;100.00
11440;BME280;5776;51.814;4.510;2023-11-19T12:35:47;100825.56;;;11.68;100.00
11440;BME280;5776;51.814;4.510;2023-11-19T12:38:20;100822.84;;;11.68;100.00
11440;BME280;5776;51.814;4.510;2023-11-19T12:40:46;100824.94;;;11.76;100.00
11440;BME280;5776;51.814;4.510;2023-11-19T12:43:22;100835.13;;;11.84;100.00
11440;BME280;5776;51.814;4.510;2023-11-19T12:45:48;100831.09;;;11.82;100.00
11440;BME280;5776;51.814;4.510;2023-11-19T12:48:16;100830.28;;;11.81;100.00
11440;BME280;5776;51.814;4.510;2023-11-19T12:50:58;100835.72;;;11.81;100.00
11440;BME280;5776;51.814;4.510;2023-11-19T12:53:26;100829.19;;;11.82;100.00
11440;BME280;5776;51.814;4.510;2023-11-19T12:55:53;100823.22;;;11.80;100.00
11440;BME280;5776;51.814;4.510;2023-11-19T12:58:29;100805.19;;;11.84;100.00
11440;BME280;5776;51.814;4.510;2023-11-19T13:01:06;100813.38;;;11.84;100.00
11440;BME280;5776;51.814;4.510;2023-11-19T13:03:33;100820.41;;;11.85;100.00
11440;BME280;5776;51.814;4.510;2023-11-19T13:06:10;100822.34;;;11.85;100.00
11440;BME280;5776;51.814;4.510;2023-11-19T13:08:49;100811.19;;;11.86;100.00
11440;BME280;5776;51.814;4.510;2023-11-19T13:11:30;100821.47;;;11.89;100.00